Weather observations for the past three days for
Washington Manassas Airport
Metric (Imperial)
Date Time (edt) Wind (kph) Vis. (km) Weather Sky Cond. Temperature (ºC) Relative Humidity Wind Chill (°C) Heat Index (°C) Pressure Precipitation (cm)
Air Dwpt 6 hour altimeter (cm) sea level (mb) 1 hr 3 hr 6 hr
Max. Min.
03 07:56 N 15 16.09 Overcast OVC007 23.3 22.2 23.3 21.7 94% 76.4 1019.1
03 06:56 N 9 1.21 Fog/Mist OVC003 22.8 22.2 96% 76.33 1018.1
03 05:56 Calm 16.09 Overcast OVC005 21.7 21.7 100% 76.28 1017.1
03 04:56 W 6 16.09 Fair CLR 21.7 21.7 100% 76.28 1017.3
03 03:56 Calm 16.09 Mostly Cloudy BKN085 22.2 21.7 97% 76.28 1017.2
03 02:56 Calm 16.09 Fair CLR 22.2 21.7 97% 76.25 1016.9
03 01:56 S 7 16.09 Fair CLR 22.8 22.2 24.4 22.2 96% 76.28 1017.3
03 00:56 SE 6 16.09 Fair CLR 22.8 21.7 94% 76.33 1017.9
02 23:56 S 6 16.09 Mostly Cloudy BKN075 22.8 22.2 96% 76.33 1017.8
02 22:56 Calm 16.09 Fair CLR 22.8 22.2 96% 76.33 1017.9
02 21:56 S 6 16.09 Fair CLR 22.8 22.2 96% 76.3 1017.5
02 20:56 SW 6 16.09 Fair CLR 23.9 22.8 94% 23 76.33 1017.9
02 19:56 Calm 16.09 Fair CLR 24.4 23.3 33.3 23.9 94% 24 76.35 1018.2 0.28
02 18:56 W 6 16.09 Fair CLR 25 22.8 88% 26 76.38 1018.6
02 17:56 Calm 16.09 Fair CLR 25 22.8 88% 26 76.35 1018.0
02 16:56 SE 9 16.09 Fair CLR 24.4 23.3 94% 24 76.38 1018.5 0.28
02 15:56 SE 6 16.09 Fair CLR 23.9 22.8 94% 23 76.4 1018.9 0.08
02 14:56 E 11 G 33 2.01 Thunderstorm Light Rain Fog/Mist SCT037 BKN044 OVC070 24.4 22.8 91% 24 76.4 1018.9 0.2
02 13:56 Vrbl 9 16.09 Mostly Cloudy BKN049 32.2 23.9 33.9 25.6 62% 38 76.35 1018.3
02 12:56 Calm 16.09 A Few Clouds FEW046 32.8 23.3 57% 38 76.4 1018.7
02 11:56 SW 9 16.09 Fair CLR 31.7 23.3 61% 37 76.4 1018.8
02 10:56 SE 7 16.09 Fair CLR 30 22.8 65% 34 76.4 1018.9
02 09:56 Calm 16.09 Fair CLR 28.9 22.8 70% 32 76.38 1018.8
02 08:56 Calm 16.09 A Few Clouds FEW120 27.2 22.2 74% 30 76.38 1018.7
02 07:56 Calm 16.09 Fair CLR 25.6 22.2 28.3 23.3 82% 27 76.38 1018.6
02 06:56 E 7 16.09 A Few Clouds FEW110 24.4 21.7 85% 25 76.35 1018.3
02 05:56 Calm 16.09 A Few Clouds FEW075 26.1 21.1 74% 28 76.33 1018.0
02 04:56 Calm 16.09 Fair CLR 26.1 21.7 77% 28 76.33 1017.7
02 03:56 N 7 16.09 Fair CLR 26.1 21.1 74% 28 76.3 1017.7
02 02:56 N 13 16.09 Fair CLR 27.2 21.1 69% 29 76.28 1017.3
02 01:56 NE 15 16.09 Fair CLR 27.2 20.6 31.1 25 67% 29 76.3 1017.4
02 00:56 W 17 16.09 Fair CLR 28.3 20.6 63% 30 76.25 1016.8
01 23:56 Calm 16.09 Mostly Cloudy BKN090 25.6 22.8 85% 27 76.25 1016.7
01 22:56 W 7 16.09 Fair CLR 26.7 22.8 79% 29 76.2 1016.0
01 21:56 W 9 16.09 Fair CLR 27.8 23.3 77% 31 76.2 1016.1
01 20:56 S 7 16.09 Fair CLR 27.8 23.9 79% 32 76.12 1015.4
01 19:56 W 6 16.09 Fair CLR 31.1 23.3 35.6 31.1 63% 36 76.07 1014.6
01 18:56 Calm 16.09 Fair CLR 32.8 22.8 56% 38 76.07 1014.7
01 17:56 SW 7 16.09 Fair CLR 33.3 22.2 52% 38 76.12 1015.1
01 16:56 W 15 16.09 Fair CLR 34.4 22.2 49% 39 76.12 1015.1
01 15:56 SW 9 16.09 A Few Clouds FEW110 35.6 22.8 48% 41 76.15 1015.5
01 14:56 W 15 16.09 Mostly Cloudy BKN060 34.4 21.7 48% 38 76.2 1016.3
01 13:56 Vrbl 9 G 28 16.09 A Few Clouds FEW055 34.4 22.2 35 22.8 49% 39 76.2 1016.2
01 12:56 W 17 16.09 Fair CLR 34.4 23.3 52% 40 76.23 1016.6
01 11:56 Vrbl 6 16.09 Fair CLR 32.8 22.8 56% 38 76.28 1017.3
01 10:56 SW 7 16.09 Fair CLR 31.1 22.8 61% 35 76.33 1017.8
01 09:56 Vrbl 6 16.09 Fair CLR 28.3 23.9 77% 32 76.33 1017.9
01 08:56 S 6 16.09 Fair CLR 25 22.8 88% 26 76.35 1018.3
01 07:56 Calm 11.27 Fair CLR 22.8 22.8 23.3 21.7 100% 76.35 1018.2
01 06:56 Calm 6.44 Fog/Mist CLR 22.2 21.7 97% 76.33 1017.7
01 05:56 S 6 8.05 Fog/Mist CLR 22.2 21.7 97% 76.3 1017.4
01 04:56 Calm 11.27 Fair CLR 22.2 22.2 100% 76.3 1017.6
01 03:56 S 6 8.05 Fog/Mist CLR 22.8 22.2 96% 76.3 1017.7
01 02:56 S 6 11.27 Fair CLR 23.3 22.8 97% 76.33 1018.1
01 01:56 Calm 12.87 Fair CLR 23.3 23.3 26.7 22.8 100% 76.35 1018.4
01 00:56 S 7 6.44 Fog/Mist CLR 23.3 22.8 97% 76.38 1018.8
31 23:56 SE 6 14.48 A Few Clouds FEW085 22.8 22.8 100% 76.4 1019.0
31 22:56 Calm 6.44 Fog/Mist BKN090 23.3 22.8 97% 76.4 1019.0
31 21:56 Calm 16.09 Fair CLR 23.9 22.8 94% 23 76.4 1019.0
31 20:56 Calm 16.09 Fair CLR 25 23.3 90% 26 76.38 1018.7
31 19:56 Calm 16.09 A Few Clouds FEW120 26.7 22.8 31.7 26.1 79% 29 76.38 1018.6
31 18:56 S 6 16.09 A Few Clouds FEW120 28.3 22.8 72% 32 76.38 1018.6
31 17:56 NW 6 16.09 Fair CLR 29.4 22.2 65% 33 76.4 1019.1
31 16:56 N 11 16.09 Fair CLR 29.4 22.8 68% 33 76.4 1019.0
31 15:56 NW 11 16.09 Fair CLR 30.6 21.7 59% 34 76.4 1018.9
31 14:56 Calm 16.09 Mostly Cloudy BKN038 BKN048 31.1 22.2 59% 35 76.45 1019.4
31 13:56 Calm 16.09 Partly Cloudy SCT036 31.1 22.2 31.1 23.3 59% 35 76.45 1019.6
31 12:56 E 11 16.09 A Few Clouds FEW100 30 22.8 65% 34 76.48 1020.0
31 11:56 N 6 16.09 A Few Clouds FEW026 29.4 22.2 65% 33 76.53 1020.5
31 10:56 N 11 16.09 Partly Cloudy SCT024 28.9 22.8 70% 32 76.5 1020.3
31 09:56 Vrbl 7 9.66 Fair with Haze CLR 26.7 21.7 74% 29 76.5 1020.4
31 08:56 NE 15 16.09 Fair CLR 25.6 21.7 79% 27 76.5 1020.5
Date Time (edt) Wind (kph) Vis. (km) Weather Sky Cond. Air Dwpt Max. Min. Relative Humidity Wind Chill (°C) Heat Index (°C) altimeter (cm) sea level (mb) 1 hr 3 hr 6 hr
6 hour
Temperature (ºC) Pressure Precipitation (cm)